| Date | Time | Temp. (oF) | Dew Point (oF) | Rel. Hum. (%) | Press. (in.) | Wind Dir. | Wind Speed (mph) | Hourly Rainfall (in.) |
|
|---|---|---|---|---|---|---|---|---|---|
| 1 | 07/06 | 00:00 | 70 | 69 | 97 | 30.03 | SE | 0 | 0.00 |
| 2 | 07/05 | 23:00 | 71 | 69 | 94 | 30.02 | SSW | 0 | 0.00 |
| 3 | 07/05 | 22:00 | 72 | 68 | 89 | 30.01 | SSW | 0 | 0.00 |
| 4 | 07/05 | 21:00 | 75 | 69 | 82 | 29.99 | SSW | 0 | 0.00 |
| 5 | 07/05 | 20:00 | 78 | 68 | 73 | 29.97 | SSW | 2 | 0.00 |
| 6 | 07/05 | 19:00 | 79 | 66 | 65 | 29.95 | SSW | 0 | 0.00 |
| 7 | 07/05 | 18:00 | 77 | 69 | 77 | 29.95 | SSW | 3 | 0.00 |
| 8 | 07/05 | 17:00 | 79 | 67 | 69 | 29.97 | SSW | 4 | 0.00 |
| 9 | 07/05 | 16:00 | 81 | 67 | 64 | 29.97 | SSE | 5 | 0.00 |
| 10 | 07/05 | 15:00 | 81 | 69 | 68 | 29.97 | NE | 3 | 0.00 |
| 11 | 07/05 | 14:00 | 78 | 68 | 74 | 29.99 | NE | 5 | 0.00 |
| 12 | 07/05 | 13:00 | 77 | 69 | 78 | 30.00 | SSW | 4 | 0.00 |
| 13 | 07/05 | 12:00 | 75 | 70 | 85 | 30.00 | NE | 1 | 0.00 |
| 14 | 07/05 | 11:00 | 73 | 70 | 92 | 30.01 | E | 1 | 0.00 |
| 15 | 07/05 | 10:00 | 72 | 70 | 95 | 30.01 | WNW | 0 | 0.00 |
| 16 | 07/05 | 09:00 | 71 | 70 | 98 | 30.00 | NNE | 1 | 0.00 |
| 17 | 07/05 | 08:00 | 70 | 69 | 100 | 30.00 | NNW | 1 | 0.00 |
| 18 | 07/05 | 07:00 | 68 | 68 | 100 | 30.00 | NW | 0 | 0.00 |
| 19 | 07/05 | 06:00 | 67 | 67 | 100 | 29.99 | NW | 0 | 0.00 |
| 20 | 07/05 | 05:00 | 67 | 67 | 100 | 29.99 | N | 0 | 0.00 |
| 21 | 07/05 | 04:00 | 68 | 68 | 100 | 29.98 | NNW | 0 | 0.00 |
| 22 | 07/05 | 03:00 | 68 | 68 | 100 | 29.99 | NNW | 1 | 0.00 |
| 23 | 07/05 | 02:00 | 68 | 68 | 100 | 30.00 | NNE | 4 | 0.04 |
| 24 | 07/05 | 01:00 | 68 | 68 | 100 | 30.01 | NE | 2 | 0.14 |